sensor_id;sensor_type;location;lat;lon;timestamp;P1;durP1;ratioP1;P2;durP2;ratioP2
31808;SDS011;18379;48.208;-1.518;2023-08-30T00:04:12;53.20;;;49.63;;
31808;SDS011;18379;48.208;-1.518;2023-08-30T00:09:13;53.30;;;49.60;;
31808;SDS011;18379;48.208;-1.518;2023-08-30T00:14:14;54.33;;;50.43;;
31808;SDS011;18379;48.208;-1.518;2023-08-30T00:19:14;53.70;;;49.93;;
31808;SDS011;18379;48.208;-1.518;2023-08-30T00:24:15;53.37;;;49.57;;
31808;SDS011;18379;48.208;-1.518;2023-08-30T00:29:16;53.70;;;50.10;;
31808;SDS011;18379;48.208;-1.518;2023-08-30T00:34:17;55.40;;;51.07;;
31808;SDS011;18379;48.208;-1.518;2023-08-30T00:39:17;54.07;;;50.30;;
31808;SDS011;18379;48.208;-1.518;2023-08-30T00:44:18;53.93;;;50.10;;
31808;SDS011;18379;48.208;-1.518;2023-08-30T00:49:19;55.43;;;51.13;;
31808;SDS011;18379;48.208;-1.518;2023-08-30T00:54:19;54.17;;;50.33;;
31808;SDS011;18379;48.208;-1.518;2023-08-30T00:59:21;54.13;;;50.27;;
31808;SDS011;18379;48.208;-1.518;2023-08-30T01:04:22;54.03;;;50.23;;
31808;SDS011;18379;48.208;-1.518;2023-08-30T01:09:24;53.80;;;49.90;;
31808;SDS011;18379;48.208;-1.518;2023-08-30T01:14:25;53.70;;;49.77;;
31808;SDS011;18379;48.208;-1.518;2023-08-30T01:19:53;54.27;;;50.60;;
31808;SDS011;18379;48.208;-1.518;2023-08-30T01:25:04;54.20;;;50.07;;
31808;SDS011;18379;48.208;-1.518;2023-08-30T01:30:16;54.13;;;50.27;;
31808;SDS011;18379;48.208;-1.518;2023-08-30T01:35:18;54.13;;;50.40;;
31808;SDS011;18379;48.208;-1.518;2023-08-30T01:40:19;53.53;;;49.93;;
31808;SDS011;18379;48.208;-1.518;2023-08-30T01:45:21;53.20;;;49.67;;
31808;SDS011;18379;48.208;-1.518;2023-08-30T01:50:23;52.27;;;48.97;;
31808;SDS011;18379;48.208;-1.518;2023-08-30T01:55:24;53.40;;;49.53;;
31808;SDS011;18379;48.208;-1.518;2023-08-30T02:00:26;52.70;;;49.10;;
31808;SDS011;18379;48.208;-1.518;2023-08-30T02:05:27;51.60;;;48.13;;
31808;SDS011;18379;48.208;-1.518;2023-08-30T02:10:30;51.17;;;47.97;;
31808;SDS011;18379;48.208;-1.518;2023-08-30T02:15:35;51.37;;;48.07;;
31808;SDS011;18379;48.208;-1.518;2023-08-30T02:20:37;50.93;;;47.73;;
31808;SDS011;18379;48.208;-1.518;2023-08-30T02:25:38;50.73;;;47.53;;
31808;SDS011;18379;48.208;-1.518;2023-08-30T02:30:38;51.07;;;47.80;;
31808;SDS011;18379;48.208;-1.518;2023-08-30T02:35:39;50.53;;;47.30;;
31808;SDS011;18379;48.208;-1.518;2023-08-30T02:40:40;50.70;;;47.43;;
31808;SDS011;18379;48.208;-1.518;2023-08-30T02:45:40;51.83;;;48.53;;
31808;SDS011;18379;48.208;-1.518;2023-08-30T02:50:41;51.00;;;47.70;;
31808;SDS011;18379;48.208;-1.518;2023-08-30T02:55:42;50.47;;;47.27;;
31808;SDS011;18379;48.208;-1.518;2023-08-30T03:00:43;51.57;;;48.10;;
31808;SDS011;18379;48.208;-1.518;2023-08-30T03:05:43;51.27;;;48.07;;
31808;SDS011;18379;48.208;-1.518;2023-08-30T03:10:44;51.30;;;48.10;;
31808;SDS011;18379;48.208;-1.518;2023-08-30T03:15:45;50.80;;;47.70;;
31808;SDS011;18379;48.208;-1.518;2023-08-30T03:20:46;51.63;;;48.23;;
31808;SDS011;18379;48.208;-1.518;2023-08-30T03:25:46;52.77;;;49.10;;
31808;SDS011;18379;48.208;-1.518;2023-08-30T03:30:47;51.60;;;48.20;;
31808;SDS011;18379;48.208;-1.518;2023-08-30T03:35:48;51.50;;;48.20;;
31808;SDS011;18379;48.208;-1.518;2023-08-30T03:40:52;52.10;;;48.70;;
31808;SDS011;18379;48.208;-1.518;2023-08-30T03:45:53;50.40;;;47.27;;
31808;SDS011;18379;48.208;-1.518;2023-08-30T03:50:55;51.40;;;48.13;;
31808;SDS011;18379;48.208;-1.518;2023-08-30T03:55:56;52.50;;;49.20;;
31808;SDS011;18379;48.208;-1.518;2023-08-30T04:00:57;51.17;;;47.97;;
31808;SDS011;18379;48.208;-1.518;2023-08-30T04:05:57;51.20;;;47.67;;
31808;SDS011;18379;48.208;-1.518;2023-08-30T04:10:58;53.40;;;49.57;;
31808;SDS011;18379;48.208;-1.518;2023-08-30T04:15:59;51.03;;;47.83;;
31808;SDS011;18379;48.208;-1.518;2023-08-30T04:20:59;51.47;;;47.97;;
31808;SDS011;18379;48.208;-1.518;2023-08-30T04:26:02;51.03;;;47.83;;
31808;SDS011;18379;48.208;-1.518;2023-08-30T04:31:03;50.73;;;47.33;;
31808;SDS011;18379;48.208;-1.518;2023-08-30T04:36:03;51.60;;;48.23;;
31808;SDS011;18379;48.208;-1.518;2023-08-30T04:41:04;51.63;;;48.33;;
31808;SDS011;18379;48.208;-1.518;2023-08-30T04:46:05;50.57;;;47.47;;
31808;SDS011;18379;48.208;-1.518;2023-08-30T04:51:06;51.00;;;47.90;;
31808;SDS011;18379;48.208;-1.518;2023-08-30T04:56:13;51.70;;;48.40;;
31808;SDS011;18379;48.208;-1.518;2023-08-30T05:01:14;50.97;;;47.77;;
31808;SDS011;18379;48.208;-1.518;2023-08-30T05:06:16;52.03;;;48.47;;
31808;SDS011;18379;48.208;-1.518;2023-08-30T05:11:16;50.93;;;47.53;;
31808;SDS011;18379;48.208;-1.518;2023-08-30T05:16:17;51.33;;;48.13;;
31808;SDS011;18379;48.208;-1.518;2023-08-30T05:21:18;51.43;;;48.03;;
31808;SDS011;18379;48.208;-1.518;2023-08-30T05:26:18;52.03;;;48.73;;
31808;SDS011;18379;48.208;-1.518;2023-08-30T05:31:19;51.07;;;47.60;;
31808;SDS011;18379;48.208;-1.518;2023-08-30T05:36:20;50.80;;;47.60;;
31808;SDS011;18379;48.208;-1.518;2023-08-30T05:41:21;51.47;;;48.23;;
31808;SDS011;18379;48.208;-1.518;2023-08-30T05:46:21;51.93;;;48.37;;
31808;SDS011;18379;48.208;-1.518;2023-08-30T05:51:22;51.03;;;47.47;;
31808;SDS011;18379;48.208;-1.518;2023-08-30T05:56:23;50.77;;;47.47;;
31808;SDS011;18379;48.208;-1.518;2023-08-30T06:01:24;51.23;;;47.60;;
31808;SDS011;18379;48.208;-1.518;2023-08-30T06:06:24;52.13;;;48.33;;
31808;SDS011;18379;48.208;-1.518;2023-08-30T06:11:27;50.77;;;47.53;;
31808;SDS011;18379;48.208;-1.518;2023-08-30T06:16:28;51.53;;;48.10;;
31808;SDS011;18379;48.208;-1.518;2023-08-30T06:21:29;51.47;;;47.90;;
31808;SDS011;18379;48.208;-1.518;2023-08-30T06:26:29;51.07;;;47.87;;
31808;SDS011;18379;48.208;-1.518;2023-08-30T06:31:30;71.30;;;50.83;;
31808;SDS011;18379;48.208;-1.518;2023-08-30T06:36:32;51.03;;;47.27;;
31808;SDS011;18379;48.208;-1.518;2023-08-30T06:41:33;50.70;;;47.40;;
31808;SDS011;18379;48.208;-1.518;2023-08-30T06:46:33;52.33;;;48.53;;
31808;SDS011;18379;48.208;-1.518;2023-08-30T06:51:34;50.90;;;47.50;;
31808;SDS011;18379;48.208;-1.518;2023-08-30T06:56:35;51.60;;;48.13;;
31808;SDS011;18379;48.208;-1.518;2023-08-30T07:01:35;51.63;;;48.23;;
31808;SDS011;18379;48.208;-1.518;2023-08-30T07:06:36;51.60;;;48.00;;
31808;SDS011;18379;48.208;-1.518;2023-08-30T07:11:37;51.83;;;48.40;;
31808;SDS011;18379;48.208;-1.518;2023-08-30T07:16:38;51.83;;;48.33;;
31808;SDS011;18379;48.208;-1.518;2023-08-30T07:21:39;51.87;;;48.20;;
31808;SDS011;18379;48.208;-1.518;2023-08-30T07:26:39;51.00;;;47.60;;
31808;SDS011;18379;48.208;-1.518;2023-08-30T07:31:40;51.90;;;48.43;;
31808;SDS011;18379;48.208;-1.518;2023-08-30T07:36:41;51.33;;;47.77;;
31808;SDS011;18379;48.208;-1.518;2023-08-30T07:41:41;52.07;;;48.37;;
31808;SDS011;18379;48.208;-1.518;2023-08-30T07:46:42;51.30;;;48.00;;
31808;SDS011;18379;48.208;-1.518;2023-08-30T07:51:43;52.37;;;48.83;;
31808;SDS011;18379;48.208;-1.518;2023-08-30T07:56:44;51.37;;;47.77;;
31808;SDS011;18379;48.208;-1.518;2023-08-30T08:01:45;52.40;;;48.93;;
31808;SDS011;18379;48.208;-1.518;2023-08-30T08:06:46;51.97;;;48.27;;
31808;SDS011;18379;48.208;-1.518;2023-08-30T08:11:50;51.00;;;47.80;;
31808;SDS011;18379;48.208;-1.518;2023-08-30T08:16:51;52.50;;;49.20;;
31808;SDS011;18379;48.208;-1.518;2023-08-30T08:21:52;52.03;;;48.47;;
31808;SDS011;18379;48.208;-1.518;2023-08-30T08:26:54;51.17;;;47.87;;
31808;SDS011;18379;48.208;-1.518;2023-08-30T08:31:55;53.40;;;49.50;;
31808;SDS011;18379;48.208;-1.518;2023-08-30T08:36:56;52.17;;;48.67;;
31808;SDS011;18379;48.208;-1.518;2023-08-30T08:41:56;52.60;;;48.83;;
31808;SDS011;18379;48.208;-1.518;2023-08-30T08:46:59;52.67;;;49.27;;
31808;SDS011;18379;48.208;-1.518;2023-08-30T08:52:01;52.20;;;48.90;;
31808;SDS011;18379;48.208;-1.518;2023-08-30T08:57:03;52.77;;;49.40;;
31808;SDS011;18379;48.208;-1.518;2023-08-30T09:02:05;53.43;;;49.87;;
31808;SDS011;18379;48.208;-1.518;2023-08-30T09:07:07;52.33;;;48.73;;
31808;SDS011;18379;48.208;-1.518;2023-08-30T09:12:08;52.10;;;48.70;;
31808;SDS011;18379;48.208;-1.518;2023-08-30T09:17:09;52.53;;;49.13;;
31808;SDS011;18379;48.208;-1.518;2023-08-30T09:22:10;53.10;;;49.67;;
31808;SDS011;18379;48.208;-1.518;2023-08-30T09:27:10;53.33;;;49.77;;
31808;SDS011;18379;48.208;-1.518;2023-08-30T09:32:11;52.33;;;48.87;;
31808;SDS011;18379;48.208;-1.518;2023-08-30T09:37:19;53.10;;;49.43;;
31808;SDS011;18379;48.208;-1.518;2023-08-30T09:42:23;52.87;;;49.27;;
31808;SDS011;18379;48.208;-1.518;2023-08-30T09:47:24;53.20;;;49.60;;
31808;SDS011;18379;48.208;-1.518;2023-08-30T09:52:28;54.20;;;50.07;;
31808;SDS011;18379;48.208;-1.518;2023-08-30T09:57:30;52.53;;;49.03;;
31808;SDS011;18379;48.208;-1.518;2023-08-30T10:02:31;53.40;;;49.47;;
31808;SDS011;18379;48.208;-1.518;2023-08-30T10:07:34;53.53;;;50.03;;
31808;SDS011;18379;48.208;-1.518;2023-08-30T10:12:37;52.93;;;49.63;;
31808;SDS011;18379;48.208;-1.518;2023-08-30T10:17:41;53.37;;;49.67;;
31808;SDS011;18379;48.208;-1.518;2023-08-30T10:22:46;53.33;;;49.90;;
31808;SDS011;18379;48.208;-1.518;2023-08-30T10:27:49;53.47;;;49.60;;
31808;SDS011;18379;48.208;-1.518;2023-08-30T10:32:52;53.60;;;49.80;;
31808;SDS011;18379;48.208;-1.518;2023-08-30T10:37:56;54.40;;;50.60;;
31808;SDS011;18379;48.208;-1.518;2023-08-30T10:42:59;53.33;;;49.83;;
31808;SDS011;18379;48.208;-1.518;2023-08-30T10:48:03;53.83;;;50.23;;
31808;SDS011;18379;48.208;-1.518;2023-08-30T10:53:04;53.43;;;49.83;;
31808;SDS011;18379;48.208;-1.518;2023-08-30T10:58:14;54.10;;;50.40;;
31808;SDS011;18379;48.208;-1.518;2023-08-30T11:03:14;54.63;;;50.80;;
31808;SDS011;18379;48.208;-1.518;2023-08-30T11:08:15;54.67;;;50.87;;
31808;SDS011;18379;48.208;-1.518;2023-08-30T11:13:16;54.73;;;50.83;;
31808;SDS011;18379;48.208;-1.518;2023-08-30T11:18:18;54.47;;;50.47;;
31808;SDS011;18379;48.208;-1.518;2023-08-30T11:23:19;54.60;;;50.90;;
31808;SDS011;18379;48.208;-1.518;2023-08-30T11:28:23;55.47;;;51.60;;
31808;SDS011;18379;48.208;-1.518;2023-08-30T11:33:25;55.83;;;51.63;;
31808;SDS011;18379;48.208;-1.518;2023-08-30T11:38:25;54.77;;;50.87;;
31808;SDS011;18379;48.208;-1.518;2023-08-30T11:43:26;54.07;;;50.17;;
31808;SDS011;18379;48.208;-1.518;2023-08-30T11:48:28;55.37;;;51.47;;
31808;SDS011;18379;48.208;-1.518;2023-08-30T11:53:29;54.80;;;50.90;;
31808;SDS011;18379;48.208;-1.518;2023-08-30T11:58:36;54.97;;;51.10;;
31808;SDS011;18379;48.208;-1.518;2023-08-30T12:03:37;54.87;;;51.07;;
31808;SDS011;18379;48.208;-1.518;2023-08-30T12:08:38;54.87;;;50.67;;
31808;SDS011;18379;48.208;-1.518;2023-08-30T12:13:39;55.43;;;51.37;;
31808;SDS011;18379;48.208;-1.518;2023-08-30T12:18:40;55.10;;;51.33;;
31808;SDS011;18379;48.208;-1.518;2023-08-30T12:23:40;55.47;;;51.53;;
31808;SDS011;18379;48.208;-1.518;2023-08-30T12:28:41;55.47;;;51.47;;
31808;SDS011;18379;48.208;-1.518;2023-08-30T12:33:44;55.53;;;51.60;;
31808;SDS011;18379;48.208;-1.518;2023-08-30T12:38:45;56.10;;;52.13;;
31808;SDS011;18379;48.208;-1.518;2023-08-30T12:43:45;54.77;;;50.97;;
31808;SDS011;18379;48.208;-1.518;2023-08-30T12:48:46;55.07;;;51.00;;
31808;SDS011;18379;48.208;-1.518;2023-08-30T12:53:47;55.07;;;50.73;;
31808;SDS011;18379;48.208;-1.518;2023-08-30T12:58:47;55.10;;;51.17;;
31808;SDS011;18379;48.208;-1.518;2023-08-30T13:03:48;55.77;;;51.30;;
31808;SDS011;18379;48.208;-1.518;2023-08-30T13:08:49;54.97;;;50.83;;
31808;SDS011;18379;48.208;-1.518;2023-08-30T13:13:49;56.73;;;51.87;;
31808;SDS011;18379;48.208;-1.518;2023-08-30T13:18:50;55.87;;;51.33;;
31808;SDS011;18379;48.208;-1.518;2023-08-30T13:23:51;55.57;;;51.20;;
31808;SDS011;18379;48.208;-1.518;2023-08-30T13:28:52;56.20;;;52.00;;
31808;SDS011;18379;48.208;-1.518;2023-08-30T13:33:52;55.43;;;51.37;;
31808;SDS011;18379;48.208;-1.518;2023-08-30T13:38:53;55.33;;;51.40;;
31808;SDS011;18379;48.208;-1.518;2023-08-30T13:43:54;57.03;;;53.03;;
31808;SDS011;18379;48.208;-1.518;2023-08-30T13:48:55;56.87;;;52.50;;
31808;SDS011;18379;48.208;-1.518;2023-08-30T13:53:55;55.57;;;51.60;;
31808;SDS011;18379;48.208;-1.518;2023-08-30T13:58:56;57.47;;;53.00;;
31808;SDS011;18379;48.208;-1.518;2023-08-30T14:03:57;57.40;;;52.97;;
31808;SDS011;18379;48.208;-1.518;2023-08-30T14:08:58;56.77;;;52.57;;
31808;SDS011;18379;48.208;-1.518;2023-08-30T14:13:58;56.42;;;52.25;;
31808;SDS011;18379;48.208;-1.518;2023-08-30T14:18:59;56.22;;;52.35;;
31808;SDS011;18379;48.208;-1.518;2023-08-30T14:24:00;56.63;;;52.55;;
31808;SDS011;18379;48.208;-1.518;2023-08-30T14:29:01;57.45;;;53.15;;
31808;SDS011;18379;48.208;-1.518;2023-08-30T14:34:01;56.75;;;52.58;;
31808;SDS011;18379;48.208;-1.518;2023-08-30T14:39:02;58.50;;;53.83;;
31808;SDS011;18379;48.208;-1.518;2023-08-30T14:44:03;57.70;;;53.45;;
31808;SDS011;18379;48.208;-1.518;2023-08-30T14:49:04;56.40;;;52.13;;
31808;SDS011;18379;48.208;-1.518;2023-08-30T14:54:05;56.57;;;52.30;;
31808;SDS011;18379;48.208;-1.518;2023-08-30T14:59:05;56.20;;;51.87;;
31808;SDS011;18379;48.208;-1.518;2023-08-30T15:04:06;56.87;;;52.57;;
31808;SDS011;18379;48.208;-1.518;2023-08-30T15:09:08;56.63;;;52.42;;
31808;SDS011;18379;48.208;-1.518;2023-08-30T15:14:10;56.47;;;52.53;;
31808;SDS011;18379;48.208;-1.518;2023-08-30T15:19:10;58.15;;;53.58;;
31808;SDS011;18379;48.208;-1.518;2023-08-30T15:24:11;57.03;;;52.92;;
31808;SDS011;18379;48.208;-1.518;2023-08-30T15:29:12;58.00;;;53.22;;
31808;SDS011;18379;48.208;-1.518;2023-08-30T15:34:13;58.85;;;54.40;;
31808;SDS011;18379;48.208;-1.518;2023-08-30T15:39:14;58.78;;;54.15;;
31808;SDS011;18379;48.208;-1.518;2023-08-30T15:44:17;57.70;;;53.28;;
31808;SDS011;18379;48.208;-1.518;2023-08-30T15:49:17;58.20;;;53.92;;
31808;SDS011;18379;48.208;-1.518;2023-08-30T15:54:18;56.80;;;52.50;;
31808;SDS011;18379;48.208;-1.518;2023-08-30T15:59:19;57.42;;;52.92;;
31808;SDS011;18379;48.208;-1.518;2023-08-30T16:04:20;57.53;;;53.33;;
31808;SDS011;18379;48.208;-1.518;2023-08-30T16:09:20;57.58;;;53.35;;
31808;SDS011;18379;48.208;-1.518;2023-08-30T16:14:21;58.47;;;53.92;;
31808;SDS011;18379;48.208;-1.518;2023-08-30T16:19:22;58.17;;;53.85;;
31808;SDS011;18379;48.208;-1.518;2023-08-30T16:24:24;58.22;;;53.92;;
31808;SDS011;18379;48.208;-1.518;2023-08-30T16:29:26;57.07;;;52.77;;
31808;SDS011;18379;48.208;-1.518;2023-08-30T16:34:27;57.87;;;53.53;;
31808;SDS011;18379;48.208;-1.518;2023-08-30T16:39:28;57.23;;;53.13;;
31808;SDS011;18379;48.208;-1.518;2023-08-30T16:44:28;57.38;;;53.10;;
31808;SDS011;18379;48.208;-1.518;2023-08-30T16:49:29;57.30;;;52.88;;
31808;SDS011;18379;48.208;-1.518;2023-08-30T16:54:30;57.63;;;53.23;;
31808;SDS011;18379;48.208;-1.518;2023-08-30T16:59:31;56.00;;;51.73;;
31808;SDS011;18379;48.208;-1.518;2023-08-30T17:04:31;57.30;;;52.77;;
31808;SDS011;18379;48.208;-1.518;2023-08-30T17:09:33;56.13;;;52.07;;
31808;SDS011;18379;48.208;-1.518;2023-08-30T17:14:36;56.03;;;51.90;;
31808;SDS011;18379;48.208;-1.518;2023-08-30T17:19:37;55.07;;;50.93;;
31808;SDS011;18379;48.208;-1.518;2023-08-30T17:24:38;55.53;;;51.63;;
31808;SDS011;18379;48.208;-1.518;2023-08-30T17:29:38;54.53;;;50.57;;
31808;SDS011;18379;48.208;-1.518;2023-08-30T17:34:40;55.07;;;51.00;;
31808;SDS011;18379;48.208;-1.518;2023-08-30T17:39:40;53.73;;;49.97;;
31808;SDS011;18379;48.208;-1.518;2023-08-30T17:44:41;54.67;;;50.40;;
31808;SDS011;18379;48.208;-1.518;2023-08-30T17:49:43;55.43;;;51.10;;
31808;SDS011;18379;48.208;-1.518;2023-08-30T17:54:44;53.63;;;50.00;;
31808;SDS011;18379;48.208;-1.518;2023-08-30T17:59:44;54.33;;;49.93;;
31808;SDS011;18379;48.208;-1.518;2023-08-30T18:04:45;54.57;;;50.57;;
31808;SDS011;18379;48.208;-1.518;2023-08-30T18:09:46;53.53;;;49.67;;
31808;SDS011;18379;48.208;-1.518;2023-08-30T18:14:47;53.43;;;49.53;;
31808;SDS011;18379;48.208;-1.518;2023-08-30T18:19:47;53.67;;;49.77;;
31808;SDS011;18379;48.208;-1.518;2023-08-30T18:24:49;52.50;;;48.93;;
31808;SDS011;18379;48.208;-1.518;2023-08-30T18:29:50;54.27;;;50.37;;
31808;SDS011;18379;48.208;-1.518;2023-08-30T18:34:51;54.27;;;50.53;;
31808;SDS011;18379;48.208;-1.518;2023-08-30T18:39:51;52.77;;;49.03;;
31808;SDS011;18379;48.208;-1.518;2023-08-30T18:44:52;53.90;;;50.07;;
31808;SDS011;18379;48.208;-1.518;2023-08-30T18:49:53;54.57;;;50.37;;
31808;SDS011;18379;48.208;-1.518;2023-08-30T18:54:55;53.77;;;49.83;;
31808;SDS011;18379;48.208;-1.518;2023-08-30T18:59:56;53.83;;;50.00;;
31808;SDS011;18379;48.208;-1.518;2023-08-30T19:04:58;53.57;;;49.40;;
31808;SDS011;18379;48.208;-1.518;2023-08-30T19:10:00;53.60;;;49.50;;
31808;SDS011;18379;48.208;-1.518;2023-08-30T19:15:00;53.13;;;49.20;;
31808;SDS011;18379;48.208;-1.518;2023-08-30T19:20:02;53.37;;;49.17;;
31808;SDS011;18379;48.208;-1.518;2023-08-30T19:25:05;53.57;;;49.47;;
31808;SDS011;18379;48.208;-1.518;2023-08-30T19:30:07;52.87;;;49.10;;
31808;SDS011;18379;48.208;-1.518;2023-08-30T19:35:09;52.37;;;48.87;;
31808;SDS011;18379;48.208;-1.518;2023-08-30T19:40:10;52.63;;;48.90;;
31808;SDS011;18379;48.208;-1.518;2023-08-30T19:45:10;53.23;;;49.27;;
31808;SDS011;18379;48.208;-1.518;2023-08-30T19:50:14;53.60;;;49.47;;
31808;SDS011;18379;48.208;-1.518;2023-08-30T19:55:19;53.63;;;49.60;;
31808;SDS011;18379;48.208;-1.518;2023-08-30T20:00:20;53.97;;;49.77;;
31808;SDS011;18379;48.208;-1.518;2023-08-30T20:05:21;52.57;;;48.87;;
31808;SDS011;18379;48.208;-1.518;2023-08-30T20:10:22;52.30;;;48.67;;
31808;SDS011;18379;48.208;-1.518;2023-08-30T20:15:23;53.23;;;48.83;;
31808;SDS011;18379;48.208;-1.518;2023-08-30T20:20:27;54.00;;;49.80;;
31808;SDS011;18379;48.208;-1.518;2023-08-30T20:25:33;52.17;;;48.43;;
31808;SDS011;18379;48.208;-1.518;2023-08-30T20:30:36;52.87;;;48.90;;
31808;SDS011;18379;48.208;-1.518;2023-08-30T20:35:44;52.53;;;48.97;;
31808;SDS011;18379;48.208;-1.518;2023-08-30T20:40:44;52.57;;;49.00;;
31808;SDS011;18379;48.208;-1.518;2023-08-30T20:45:45;53.13;;;48.97;;
31808;SDS011;18379;48.208;-1.518;2023-08-30T20:50:47;54.53;;;50.20;;
31808;SDS011;18379;48.208;-1.518;2023-08-30T20:55:48;54.40;;;50.60;;
31808;SDS011;18379;48.208;-1.518;2023-08-30T21:00:53;53.70;;;49.70;;
31808;SDS011;18379;48.208;-1.518;2023-08-30T21:05:55;53.40;;;49.60;;
31808;SDS011;18379;48.208;-1.518;2023-08-30T21:10:55;53.77;;;49.97;;
31808;SDS011;18379;48.208;-1.518;2023-08-30T21:15:56;53.50;;;49.43;;
31808;SDS011;18379;48.208;-1.518;2023-08-30T21:20:57;52.40;;;49.00;;
31808;SDS011;18379;48.208;-1.518;2023-08-30T21:25:58;53.17;;;49.67;;
31808;SDS011;18379;48.208;-1.518;2023-08-30T21:30:59;53.77;;;49.83;;
31808;SDS011;18379;48.208;-1.518;2023-08-30T21:36:00;53.13;;;49.47;;
31808;SDS011;18379;48.208;-1.518;2023-08-30T21:41:01;53.67;;;49.80;;
31808;SDS011;18379;48.208;-1.518;2023-08-30T21:46:02;53.03;;;49.27;;
31808;SDS011;18379;48.208;-1.518;2023-08-30T21:51:03;52.43;;;48.53;;
31808;SDS011;18379;48.208;-1.518;2023-08-30T21:56:04;53.43;;;49.43;;
31808;SDS011;18379;48.208;-1.518;2023-08-30T22:01:05;53.07;;;49.23;;
31808;SDS011;18379;48.208;-1.518;2023-08-30T22:06:05;53.77;;;49.50;;
31808;SDS011;18379;48.208;-1.518;2023-08-30T22:11:06;54.03;;;50.10;;
31808;SDS011;18379;48.208;-1.518;2023-08-30T22:16:11;53.47;;;49.33;;
31808;SDS011;18379;48.208;-1.518;2023-08-30T22:21:13;54.00;;;50.10;;
31808;SDS011;18379;48.208;-1.518;2023-08-30T22:26:16;53.80;;;49.70;;
31808;SDS011;18379;48.208;-1.518;2023-08-30T22:31:16;52.70;;;48.97;;
31808;SDS011;18379;48.208;-1.518;2023-08-30T22:36:18;53.17;;;49.10;;
31808;SDS011;18379;48.208;-1.518;2023-08-30T22:41:19;52.93;;;48.77;;
31808;SDS011;18379;48.208;-1.518;2023-08-30T22:46:20;53.00;;;49.10;;
31808;SDS011;18379;48.208;-1.518;2023-08-30T22:51:21;52.40;;;48.50;;
31808;SDS011;18379;48.208;-1.518;2023-08-30T22:56:24;51.30;;;47.70;;
31808;SDS011;18379;48.208;-1.518;2023-08-30T23:01:25;50.97;;;47.30;;
31808;SDS011;18379;48.208;-1.518;2023-08-30T23:06:26;51.80;;;47.80;;
31808;SDS011;18379;48.208;-1.518;2023-08-30T23:11:27;51.97;;;48.00;;
31808;SDS011;18379;48.208;-1.518;2023-08-30T23:16:28;52.47;;;48.37;;
31808;SDS011;18379;48.208;-1.518;2023-08-30T23:21:29;51.73;;;48.10;;
31808;SDS011;18379;48.208;-1.518;2023-08-30T23:26:29;51.13;;;47.53;;
31808;SDS011;18379;48.208;-1.518;2023-08-30T23:31:30;51.33;;;47.57;;
31808;SDS011;18379;48.208;-1.518;2023-08-30T23:36:32;52.87;;;48.90;;
31808;SDS011;18379;48.208;-1.518;2023-08-30T23:41:33;50.47;;;47.17;;
31808;SDS011;18379;48.208;-1.518;2023-08-30T23:46:34;51.47;;;48.00;;
31808;SDS011;18379;48.208;-1.518;2023-08-30T23:51:34;51.13;;;47.53;;
31808;SDS011;18379;48.208;-1.518;2023-08-30T23:56:35;51.70;;;48.00;;
